Time;durP1;ratioP1;P1;durP2;ratioP2;P2;SDS_P1;SDS_P2;PMS_P1;PMS_P2;Temp;Humidity;BMP_temperature;BMP_pressure;BME280_temperature;BME280_humidity;BME280_pressure;Samples;Min_cycle;Max_cycle;Signal;HPM_P1;HPM_P2
2022/12/20 00:00:23;;;;;;;116.37;50.63;;;;;;;-5.93;77.47;103007.79;123073;1102;104272;-76
2022/12/20 00:03:15;;;;;;;113.30;51.00;;;;;;;-5.99;77.83;103007.86;123007;1102;104405;-76
2022/12/20 00:05:46;;;;;;;115.73;51.63;;;;;;;-6.02;77.27;103004.88;123086;1102;104814;-76
2022/12/20 00:08:17;;;;;;;124.40;53.97;;;;;;;-6.04;78.08;103007.21;123068;1102;104402;-76
2022/12/20 00:10:48;;;;;;;121.73;54.77;;;;;;;-6.02;77.62;103002.31;122936;1102;104265;-77
2022/12/20 00:13:20;;;;;;;122.27;54.40;;;;;;;-6.01;77.27;102999.06;122975;1100;104281;-77
2022/12/20 00:15:51;;;;;;;120.30;54.57;;;;;;;-6.01;77.83;102988.84;123082;1100;104502;-76
2022/12/20 00:18:22;;;;;;;117.93;52.57;;;;;;;-6.01;77.57;102986.28;123040;1102;104344;-76
2022/12/20 00:20:59;;;;;;;116.55;51.20;;;;;;;-6.02;77.50;102993.00;122986;1100;104270;-76
2022/12/20 00:23:30;;;;;;;115.13;50.00;;;;;;;-6.00;78.10;102983.00;123069;1102;104619;-77
2022/12/20 00:26:06;;;;;;;106.87;47.87;;;;;;;-6.00;78.12;102977.88;123028;1102;104274;-76
2022/12/20 00:28:39;;;;;;;104.00;46.15;;;;;;;-5.99;78.21;102962.76;123040;1101;104283;-76
2022/12/20 00:31:12;;;;;;;109.97;48.80;;;;;;;-5.98;77.95;102966.27;123017;1100;104724;-76
2022/12/20 00:33:46;;;;;;;109.43;48.10;;;;;;;-5.96;78.70;102967.36;123047;1102;104275;-77
2022/12/20 00:36:19;;;;;;;104.47;46.30;;;;;;;-5.96;77.68;102965.71;123069;1100;104470;-77
2022/12/20 00:38:53;;;;;;;101.07;45.70;;;;;;;-5.93;78.60;102961.77;123073;1102;104332;-76
2022/12/20 00:41:26;;;;;;;106.27;48.13;;;;;;;-5.94;77.62;102960.81;123058;1102;104690;-77
2022/12/20 00:43:57;;;;;;;106.73;46.77;;;;;;;-5.93;77.94;102956.65;123069;1102;104650;-77
2022/12/20 00:46:30;;;;;;;103.27;47.80;;;;;;;-5.95;78.17;102953.88;123079;1102;104347;-77
2022/12/20 00:49:03;;;;;;;103.53;47.30;;;;;;;-5.96;77.87;102944.34;123097;1102;104358;-77
2022/12/20 00:51:34;;;;;;;101.75;46.50;;;;;;;-5.97;78.35;102943.47;123004;1102;104278;-77
2022/12/20 00:54:05;;;;;;;103.47;47.00;;;;;;;-5.95;78.37;102933.42;123012;1102;104248;-77
2022/12/20 00:56:37;;;;;;;101.93;46.10;;;;;;;-5.94;77.74;102922.46;123014;1100;104248;-77
2022/12/20 00:59:08;;;;;;;102.57;43.13;;;;;;;-5.95;77.81;102915.52;123094;1102;104386;-76
2022/12/20 01:01:39;;;;;;;95.17;42.23;;;;;;;-5.95;78.50;102923.20;123061;1101;104379;-76
2022/12/20 01:04:10;;;;;;;95.77;40.40;;;;;;;-5.94;78.07;102925.02;123080;1102;104249;-76
2022/12/20 01:06:41;;;;;;;94.47;41.33;;;;;;;-5.93;78.71;102910.63;123028;1101;104408;-77
2022/12/20 01:09:13;;;;;;;88.53;36.97;;;;;;;-5.92;77.92;102904.78;123041;1101;104281;-76
2022/12/20 01:11:44;;;;;;;92.10;39.13;;;;;;;-5.91;77.70;102909.20;123126;1102;104255;-76
2022/12/20 01:14:16;;;;;;;88.03;38.03;;;;;;;-5.89;78.87;102898.48;123034;1100;104373;-76
2022/12/20 01:16:48;;;;;;;94.50;38.93;;;;;;;-5.87;78.46;102894.50;123057;1100;104344;-76
2022/12/20 01:19:20;;;;;;;84.33;37.20;;;;;;;-5.88;78.17;102896.84;123051;1101;104386;-76
2022/12/20 01:21:51;;;;;;;86.67;37.67;;;;;;;-5.89;78.70;102890.81;123067;1102;104242;-77
2022/12/20 01:24:22;;;;;;;104.17;44.57;;;;;;;-5.88;78.48;102897.75;123048;1100;104331;-77
2022/12/20 01:26:54;;;;;;;91.07;39.50;;;;;;;-5.91;78.12;102887.09;123049;1100;104448;-76
2022/12/20 01:29:25;;;;;;;91.93;39.03;;;;;;;-5.93;78.51;102874.83;123095;1100;104344;-77
2022/12/20 01:31:56;;;;;;;84.55;37.00;;;;;;;-5.94;78.60;102870.41;123068;1100;104421;-77
2022/12/20 01:34:27;;;;;;;87.50;37.37;;;;;;;-5.95;78.59;102861.83;123036;1101;104322;-77
2022/12/20 01:36:58;;;;;;;89.50;37.50;;;;;;;-5.94;79.04;102862.75;123082;1102;104224;-76
2022/12/20 01:39:29;;;;;;;82.63;35.67;;;;;;;-5.95;78.84;102859.27;123051;1102;104644;-77
2022/12/20 01:42:00;;;;;;;84.53;37.90;;;;;;;-5.97;78.31;102864.20;123006;1101;104329;-76
2022/12/20 01:44:56;;;;;;;80.63;33.57;;;;;;;-5.97;78.13;102864.20;123017;1102;104357;-76
2022/12/20 01:47:31;;;;;;;76.03;33.73;;;;;;;-5.99;78.09;102859.58;123013;1102;104257;-77
2022/12/20 01:50:04;;;;;;;79.37;32.43;;;;;;;-6.00;78.51;102865.39;123157;1102;104315;-77
2022/12/20 01:52:40;;;;;;;81.90;35.43;;;;;;;-6.02;78.27;102862.62;123062;1100;104325;-77
2022/12/20 01:55:17;;;;;;;83.20;34.70;;;;;;;-6.02;78.42;102854.04;123120;1102;104242;-77
2022/12/20 01:57:53;;;;;;;82.73;36.43;;;;;;;-6.03;79.05;102858.24;123060;1102;104341;-77
2022/12/20 02:00:25;;;;;;;86.83;37.47;;;;;;;-6.02;78.32;102859.16;122951;1100;104361;-76
2022/12/20 02:02:59;;;;;;;89.33;37.17;;;;;;;-6.03;79.18;102857.30;123076;1100;104242;-77
2022/12/20 02:05:36;;;;;;;95.90;41.07;;;;;;;-6.03;78.41;102855.69;123024;1101;104326;-77
2022/12/20 02:08:10;;;;;;;93.17;39.50;;;;;;;-6.04;79.02;102848.72;123036;1102;104354;-77
2022/12/20 02:10:52;;;;;;;88.80;37.67;;;;;;;-6.06;78.22;102846.64;123043;1102;104252;-77
2022/12/20 02:13:32;;;;;;;92.37;41.20;;;;;;;-6.07;78.53;102847.37;123007;1102;107571;-77
2022/12/20 02:16:05;;;;;;;103.17;41.47;;;;;;;-6.09;78.90;102843.66;123026;1102;104351;-77
2022/12/20 02:18:43;;;;;;;96.67;41.40;;;;;;;-6.12;78.44;102846.73;123072;1100;104348;-76
2022/12/20 02:21:26;;;;;;;94.83;42.47;;;;;;;-6.15;78.54;102838.64;123045;1100;104265;-76
2022/12/20 02:24:54;;;;;;;98.90;41.83;;;;;;;-6.17;78.03;102825.64;122978;1101;117890;-77
2022/12/20 02:27:39;;;;;;;104.20;43.50;;;;;;;-6.20;78.19;102837.05;123085;1102;104738;-77
2022/12/20 02:30:14;;;;;;;108.20;43.90;;;;;;;-6.24;78.36;102838.27;123032;1102;104319;-76
2022/12/20 02:32:51;;;;;;;96.03;41.23;;;;;;;-6.25;78.75;102835.49;123082;1102;104255;-76
2022/12/20 02:35:25;;;;;;;101.83;43.17;;;;;;;-6.27;77.98;102832.72;123035;1102;104363;-77
2022/12/20 02:38:00;;;;;;;94.33;42.37;;;;;;;-6.29;78.79;102833.20;123033;1102;104730;-76
2022/12/20 02:40:37;;;;;;;103.00;41.87;;;;;;;-6.32;78.64;102828.61;123021;1102;104709;-77
2022/12/20 02:45:14;;;;;;;102.73;42.10;;;;;;;-6.34;78.81;102837.70;123047;1101;104224;-77
2022/12/20 02:46:04;;;;;;;99.50;40.40;;;;;;;-6.35;78.87;102835.84;123049;1101;104303;-77
2022/12/20 02:48:37;;;;;;;91.47;37.17;;;;;;;-6.39;78.73;102831.00;123077;1100;104287;-77
2022/12/20 02:51:11;;;;;;;84.03;34.47;;;;;;;-6.44;78.70;102832.91;122973;1102;104366;-77
2022/12/20 02:53:42;;;;;;;79.55;34.45;;;;;;;-6.49;77.91;102825.33;123031;1102;104194;-77
2022/12/20 02:56:18;;;;;;;84.53;35.10;;;;;;;-6.55;78.02;102813.52;123058;1100;104239;-77
2022/12/20 02:58:53;;;;;;;78.53;31.93;;;;;;;-6.58;78.93;102820.75;123160;1102;104434;-77
2022/12/20 03:01:31;;;;;;;69.67;29.47;;;;;;;-6.60;79.22;102813.59;123030;1102;104270;-77
2022/12/20 03:04:03;;;;;;;68.10;26.10;;;;;;;-6.61;78.81;102801.52;123036;1102;104726;-77
2022/12/20 03:06:35;;;;;;;63.60;27.80;;;;;;;-6.59;79.18;102800.09;123006;1102;104629;-77
2022/12/20 03:09:06;;;;;;;71.37;29.07;;;;;;;-6.59;79.28;102794.98;122981;1102;104358;-76
2022/12/20 03:11:38;;;;;;;70.40;29.95;;;;;;;-6.59;79.01;102790.83;123071;1102;104335;-76
2022/12/20 03:14:10;;;;;;;73.60;30.90;;;;;;;-6.58;78.86;102797.76;123011;1102;104373;-77
2022/12/20 03:16:41;;;;;;;69.40;30.07;;;;;;;-6.58;78.06;102795.20;123012;1102;104408;-77
2022/12/20 03:19:13;;;;;;;70.40;30.17;;;;;;;-6.57;79.24;102797.06;123069;1102;104673;-76
2022/12/20 03:21:44;;;;;;;73.80;31.83;;;;;;;-6.58;78.36;102787.55;123093;1100;104679;-76
2022/12/20 03:24:18;;;;;;;78.67;31.07;;;;;;;-6.58;78.35;102792.65;123026;1102;104242;-77
2022/12/20 03:26:49;;;;;;;73.13;31.63;;;;;;;-6.56;78.27;102792.87;123137;1102;104278;-76
2022/12/20 03:29:22;;;;;;;72.45;30.08;;;;;;;-6.58;79.19;102784.98;123075;1102;104246;-77
2022/12/20 03:31:54;;;;;;;66.53;26.53;;;;;;;-6.57;79.25;102779.19;123032;1102;104258;-77
2022/12/20 03:34:25;;;;;;;76.83;30.50;;;;;;;-6.58;79.14;102771.31;122989;1102;104450;-76
2022/12/20 03:36:56;;;;;;;74.80;29.93;;;;;;;-6.61;79.22;102769.23;123057;1102;104290;-76
2022/12/20 03:39:27;;;;;;;71.93;29.10;;;;;;;-6.58;78.96;102776.41;123053;1102;104299;-76
2022/12/20 03:41:59;;;;;;;65.50;26.60;;;;;;;-6.58;78.80;102773.86;123029;1100;104389;-77
2022/12/20 03:44:30;;;;;;;62.33;25.60;;;;;;;-6.61;78.85;102756.46;123018;1102;104315;-76
2022/12/20 03:47:01;;;;;;;56.37;22.57;;;;;;;-6.61;79.55;102760.66;123015;1102;104326;-76
2022/12/20 03:49:33;;;;;;;73.40;26.80;;;;;;;-6.64;79.53;102745.82;123008;1102;104319;-77
2022/12/20 03:52:04;;;;;;;69.07;26.40;;;;;;;-6.65;78.51;102738.89;123058;1102;104744;-76
2022/12/20 03:54:36;;;;;;;68.37;26.63;;;;;;;-6.64;79.47;102740.71;123008;1102;104390;-76
2022/12/20 03:57:17;;;;;;;66.83;26.63;;;;;;;-6.64;79.64;102740.71;123008;1100;104220;-76
2022/12/20 03:59:49;;;;;;;70.43;26.87;;;;;;;-6.64;79.12;102733.05;123000;1101;104389;-77
2022/12/20 04:02:21;;;;;;;71.33;28.13;;;;;;;-6.64;79.34;102733.05;123113;1102;104354;-77
2022/12/20 04:04:52;;;;;;;61.23;27.00;;;;;;;-6.67;79.52;102735.17;123085;1102;104181;-76
2022/12/20 04:07:23;;;;;;;68.83;26.10;;;;;;;-6.70;79.25;102734.75;122990;1102;104366;-77
2022/12/20 04:09:55;;;;;;;61.20;25.15;;;;;;;-6.72;79.85;102736.17;123018;1102;104277;-77
2022/12/20 04:12:26;;;;;;;66.87;25.63;;;;;;;-6.75;79.03;102743.41;122977;1102;104313;-77
2022/12/20 04:14:57;;;;;;;62.40;23.13;;;;;;;-6.77;79.57;102743.19;122983;1102;104283;-77
2022/12/20 04:17:29;;;;;;;66.07;23.37;;;;;;;-6.77;79.31;102749.94;123036;1102;104340;-77
2022/12/20 04:20:17;;;;;;;57.05;22.10;;;;;;;-6.76;79.30;102738.99;123088;1102;104382;-77
2022/12/20 04:22:50;;;;;;;57.23;24.33;;;;;;;-6.76;79.50;102739.94;123021;1102;104335;-77
2022/12/20 04:25:22;;;;;;;48.97;21.10;;;;;;;-6.76;79.15;102746.65;123006;1102;104440;-77
2022/12/20 04:27:54;;;;;;;42.55;16.40;;;;;;;-6.74;79.36;102742.70;123065;1101;104849;-77
2022/12/20 04:30:26;;;;;;;56.00;21.30;;;;;;;-6.75;79.84;102741.77;123047;1100;104252;-77
2022/12/20 04:32:57;;;;;;;52.00;20.75;;;;;;;-6.71;79.79;102740.58;123065;1102;104389;-77
2022/12/20 04:35:29;;;;;;;60.37;22.23;;;;;;;-6.71;79.49;102741.49;122967;1101;104300;-76
2022/12/20 04:38:00;;;;;;;58.57;23.53;;;;;;;-6.68;79.30;102743.56;123144;1101;104302;-77
2022/12/20 04:40:32;;;;;;;57.67;24.00;;;;;;;-6.63;78.76;102745.13;123063;1102;104287;-76
2022/12/20 04:43:05;;;;;;;55.58;21.82;;;;;;;-6.59;79.14;102742.30;123099;1100;104293;-76
2022/12/20 04:45:36;;;;;;;57.80;23.30;;;;;;;-6.57;79.52;102750.17;123012;1102;104395;-76
2022/12/20 04:48:08;;;;;;;59.73;22.90;;;;;;;-6.51;80.30;102744.28;122996;1102;104341;-76
2022/12/20 04:50:41;;;;;;;58.70;24.43;;;;;;;-6.46;79.54;102751.67;123205;1100;104255;-76
2022/12/20 04:56:02;;;;;;;63.40;23.90;;;;;;;-6.40;79.94;102739.76;123060;1102;104392;-77
2022/12/20 04:58:33;;;;;;;52.83;21.57;;;;;;;-6.35;79.45;102734.55;123053;1101;104364;-77
2022/12/20 05:01:06;;;;;;;53.57;21.80;;;;;;;-6.34;79.57;102740.61;123020;1101;104293;-77
2022/12/20 05:03:46;;;;;;;59.03;22.83;;;;;;;-6.32;79.24;102731.52;123028;1102;104297;-76
2022/12/20 05:06:18;;;;;;;60.60;23.90;;;;;;;-6.31;79.36;102725.67;123076;1102;104696;-74
2022/12/20 05:08:49;;;;;;;55.40;20.50;;;;;;;-6.30;79.53;102717.30;123046;1102;104690;-75
2022/12/20 05:11:20;;;;;;;54.97;22.27;;;;;;;-6.32;79.34;102727.31;123062;1102;104389;-74
2022/12/20 05:13:51;;;;;;;59.27;23.73;;;;;;;-6.37;80.46;102710.44;123002;1102;104280;-75
2022/12/20 05:16:24;;;;;;;51.67;19.73;;;;;;;-6.43;79.95;102712.14;123005;1102;104245;-74
2022/12/20 05:18:55;;;;;;;51.70;20.43;;;;;;;-6.44;79.66;102701.70;123117;1101;104246;-74
2022/12/20 05:27:12;;;;;;;60.90;21.67;;;;;;;-6.51;79.50;102684.63;123009;1102;104197;-76
2022/12/20 05:29:43;;;;;;;56.20;21.23;;;;;;;-6.52;80.44;102676.02;123029;1099;104712;-76
2022/12/20 05:32:14;;;;;;;58.50;20.90;;;;;;;-6.53;80.12;102669.08;123066;1102;104386;-77
2022/12/20 05:34:46;;;;;;;59.80;21.90;;;;;;;-6.55;80.23;102667.02;123237;1102;104390;-76
2022/12/20 05:37:19;;;;;;;55.73;20.50;;;;;;;-6.55;80.72;102661.91;123235;1102;104714;-76
2022/12/20 05:39:50;;;;;;;58.13;21.60;;;;;;;-6.53;79.83;102669.08;123224;1101;104319;-76
2022/12/20 05:42:24;;;;;;;58.90;20.43;;;;;;;-6.48;79.76;102671.33;123360;1101;104293;-76
2022/12/20 05:44:56;;;;;;;55.03;20.37;;;;;;;-6.45;80.66;102671.75;123161;1101;104290;-76
2022/12/20 05:47:29;;;;;;;52.93;21.07;;;;;;;-6.42;80.13;102679.84;123271;1101;104702;-77
2022/12/20 05:50:09;;;;;;;56.10;21.65;;;;;;;-6.37;80.76;102681.42;123103;1102;104268;-77
2022/12/20 05:52:43;;;;;;;56.17;20.57;;;;;;;-6.33;80.11;102678.55;123251;1102;104252;-76
2022/12/20 05:55:17;;;;;;;46.70;18.03;;;;;;;-6.30;79.84;102678.06;123186;1102;104261;-77
2022/12/20 05:57:49;;;;;;;52.73;20.93;;;;;;;-6.32;81.05;102662.52;123136;1102;104352;-77
2022/12/20 06:00:22;;;;;;;56.50;19.50;;;;;;;-6.33;79.98;102653.95;123284;1102;104347;-76
2022/12/20 06:02:54;;;;;;;53.73;19.80;;;;;;;-6.28;80.96;102661.30;123198;1102;104326;-76
2022/12/20 06:05:25;;;;;;;58.27;20.33;;;;;;;-6.27;80.46;102647.83;123163;1102;104271;-76
2022/12/20 06:07:59;;;;;;;56.37;20.67;;;;;;;-6.22;80.72;102657.94;123293;1102;104437;-76
2022/12/20 06:10:48;;;;;;;49.47;19.10;;;;;;;-6.19;81.04;102660.92;123565;1102;104172;-78
2022/12/20 06:13:21;;;;;;;58.97;19.57;;;;;;;-6.12;80.34;102665.25;124169;1102;104242;-78
2022/12/20 06:15:54;;;;;;;55.93;20.30;;;;;;;-6.09;80.48;102667.28;123841;1102;104309;-79
2022/12/20 06:18:25;;;;;;;52.47;20.03;;;;;;;-6.04;81.06;102667.22;123900;1102;107885;-77
2022/12/20 06:21:01;;;;;;;;;;;;;;;-5.99;81.38;102673.86;123879;1102;104207;-78
2022/12/20 06:23:33;;;;;;;52.97;19.17;;;;;;;-5.92;81.16;102669.55;123852;1102;104302;-79
2022/12/20 06:26:10;;;;;;;53.95;20.25;;;;;;;-5.85;80.99;102682.47;123969;1102;104166;-78
2022/12/20 06:28:51;;;;;;;53.23;19.97;;;;;;;-5.78;80.56;102675.84;124293;1101;118464;-78
2022/12/20 06:31:27;;;;;;;54.23;19.40;;;;;;;-5.67;81.04;102664.50;124230;1102;104383;-79
2022/12/20 06:33:59;;;;;;;52.07;18.93;;;;;;;-5.58;80.87;102648.53;124194;1102;104233;-78
2022/12/20 06:36:35;;;;;;;49.43;17.60;;;;;;;-5.52;81.06;102639.13;124299;1102;104313;-78
2022/12/20 06:39:08;;;;;;;51.60;19.20;;;;;;;-5.49;81.05;102630.22;124402;1102;104233;-78
2022/12/20 06:41:41;;;;;;;56.80;19.77;;;;;;;-5.41;81.03;102613.33;124585;1102;104246;-77
2022/12/20 06:44:12;;;;;;;48.60;17.70;;;;;;;-5.34;80.82;102609.97;124798;1102;104281;-78
2022/12/20 06:46:43;;;;;;;53.33;19.70;;;;;;;-5.30;81.08;102617.31;124573;1102;104168;-77
2022/12/20 06:49:15;;;;;;;53.67;19.53;;;;;;;-5.19;81.10;102624.77;124806;1102;104252;-78
2022/12/20 06:51:46;;;;;;;49.60;19.87;;;;;;;-5.07;81.29;102626.38;124869;1102;103888;-77
2022/12/20 06:54:20;;;;;;;42.23;15.40;;;;;;;-4.91;81.25;102641.21;124614;1102;104200;-77
2022/12/20 06:56:51;;;;;;;54.53;19.83;;;;;;;-4.75;81.40;102644.17;124405;1102;104427;-76
2022/12/20 06:59:23;;;;;;;53.57;19.93;;;;;;;-4.64;81.21;102654.17;124277;1102;103090;-76
2022/12/20 07:01:55;;;;;;;56.70;22.43;;;;;;;-4.49;81.36;102647.53;124349;1102;104309;-75
2022/12/20 07:04:28;;;;;;;57.07;22.07;;;;;;;-4.33;81.24;102658.16;124439;1102;104217;-76
2022/12/20 07:07:02;;;;;;;56.87;21.10;;;;;;;-4.24;81.04;102653.28;124318;1102;104162;-75
2022/12/20 07:09:33;;;;;;;56.37;21.68;;;;;;;-4.12;81.43;102652.30;124350;1102;104434;-76
2022/12/20 07:12:07;;;;;;;61.73;22.43;;;;;;;-3.97;81.30;102651.70;124628;1102;103542;-75
2022/12/20 07:14:39;;;;;;;59.23;22.70;;;;;;;-3.84;81.84;102649.05;124558;1102;104239;-75
2022/12/20 07:17:13;;;;;;;59.07;22.40;;;;;;;-3.72;81.93;102634.31;124574;1102;104308;-75
2022/12/20 07:19:44;;;;;;;;;;;;;;;-3.57;81.07;102636.97;124318;1102;104326;-75
2022/12/20 07:22:16;;;;;;;58.80;22.97;;;;;;;-3.40;81.81;102628.83;124343;1102;104177;-78
2022/12/20 07:24:49;;;;;;;48.80;19.53;;;;;;;-3.23;81.80;102631.84;124679;1102;104191;-75
2022/12/20 07:27:21;;;;;;;54.70;19.73;;;;;;;-3.13;81.54;102627.14;124492;1102;102882;-76
2022/12/20 07:29:53;;;;;;;50.67;19.77;;;;;;;-3.01;81.01;102632.86;124248;1102;104275;-76
2022/12/20 07:32:24;;;;;;;57.20;20.13;;;;;;;-2.90;82.02;102617.15;124459;1102;104245;-76
2022/12/20 07:34:55;;;;;;;49.57;19.83;;;;;;;-2.85;80.99;102609.06;124217;1102;104245;-75
2022/12/20 07:37:33;;;;;;;49.87;18.90;;;;;;;-2.78;81.72;102612.58;124456;1102;104179;-75
2022/12/20 07:40:08;;;;;;;47.07;17.67;;;;;;;-2.78;81.29;102606.53;124419;1102;104284;-75
2022/12/20 07:42:40;;;;;;;52.70;20.97;;;;;;;-2.76;81.62;102615.34;126359;1099;102120;-76
2022/12/20 07:45:14;;;;;;;53.90;21.27;;;;;;;-2.75;81.65;102615.52;126185;1102;101976;-77
2022/12/20 07:47:46;;;;;;;54.97;21.70;;;;;;;-2.72;81.24;102609.86;126363;1099;101809;-75
2022/12/20 07:50:17;;;;;;;51.27;21.00;;;;;;;-2.73;80.92;102597.72;126279;1100;102303;-75
2022/12/20 07:52:52;;;;;;;45.23;18.57;;;;;;;-2.70;81.98;102585.25;126026;1100;102694;-75
2022/12/20 07:55:28;;;;;;;44.37;16.87;;;;;;;-2.67;80.88;102583.05;126206;1100;102565;-76
2022/12/20 07:58:05;;;;;;;39.07;16.40;;;;;;;-2.63;81.01;102579.23;126111;1100;102645;-77
2022/12/20 08:00:37;;;;;;;55.77;19.17;;;;;;;-2.60;81.13;102575.37;126045;1099;101778;-77
2022/12/20 08:03:12;;;;;;;48.30;17.87;;;;;;;-2.51;81.38;102570.41;125261;1102;102795;-76
2022/12/20 08:05:54;;;;;;;44.53;17.13;;;;;;;-2.37;80.59;102575.58;124614;1102;104230;-76
2022/12/20 08:08:26;;;;;;;38.03;16.50;;;;;;;-2.25;81.07;102578.69;124574;1102;101972;-76
2022/12/20 08:10:58;;;;;;;42.83;16.80;;;;;;;-2.06;82.06;102580.89;124471;1102;119276;-76
2022/12/20 08:13:29;;;;;;;44.37;17.13;;;;;;;-1.86;82.12;102580.70;124588;1102;104278;-76
2022/12/20 08:16:12;;;;;;;44.20;17.53;;;;;;;-1.78;81.70;102564.50;124701;1102;104251;-77
2022/12/20 08:18:51;;;;;;;48.07;16.63;;;;;;;-1.68;82.14;102557.14;124587;1102;104249;-77
2022/12/20 08:21:29;;;;;;;44.27;18.10;;;;;;;-1.66;81.29;102549.59;124531;1102;105493;-78
2022/12/20 08:24:00;;;;;;;44.70;18.10;;;;;;;-1.64;81.24;102560.98;124499;1102;102116;-76
2022/12/20 08:26:32;;;;;;;47.63;18.30;;;;;;;-1.64;81.77;102551.63;124688;1102;104246;-76
2022/12/20 08:29:05;;;;;;;40.03;17.23;;;;;;;-1.61;81.61;102551.04;124747;1102;102314;-77
2022/12/20 08:31:39;;;;;;;43.80;16.83;;;;;;;-1.56;81.76;102551.58;124724;1102;111318;-77
2022/12/20 08:34:12;;;;;;;43.87;17.42;;;;;;;-1.49;82.30;102555.05;124785;1102;102799;-77
2022/12/20 08:36:44;;;;;;;39.42;15.88;;;;;;;-1.41;81.81;102545.64;124779;1102;102966;-78
2022/12/20 08:39:15;;;;;;;43.30;16.50;;;;;;;-1.36;81.21;102541.03;124554;1102;105553;-76
2022/12/20 08:41:47;;;;;;;42.77;16.83;;;;;;;-1.30;82.39;102528.86;124746;1102;104226;-77
2022/12/20 08:44:19;;;;;;;39.27;15.80;;;;;;;-1.20;82.02;102530.83;124691;1101;103022;-76
2022/12/20 08:46:50;;;;;;;39.93;16.17;;;;;;;-1.13;82.24;102508.53;124613;1100;104344;-75
2022/12/20 08:49:27;;;;;;;38.53;16.47;;;;;;;-1.05;81.88;102504.25;124584;1102;102619;-76
2022/12/20 08:51:59;;;;;;;41.73;16.97;;;;;;;-0.95;81.54;102498.48;124678;1102;107862;-76
2022/12/20 08:54:30;;;;;;;38.20;16.07;;;;;;;-0.87;82.00;102494.19;124621;1102;104175;-76
2022/12/20 08:57:02;;;;;;;39.43;15.80;;;;;;;-0.81;81.38;102487.16;124582;1102;102229;-76
2022/12/20 08:59:33;;;;;;;38.10;15.97;;;;;;;-0.76;81.77;102484.37;124787;1102;102296;-75
2022/12/20 09:02:05;;;;;;;36.10;14.53;;;;;;;-0.69;81.18;102467.91;124822;1102;102967;-74
2022/12/20 09:04:37;;;;;;;41.40;15.20;;;;;;;-0.64;82.13;102476.17;124587;1102;103292;-76
2022/12/20 09:07:26;;;;;;;38.70;15.37;;;;;;;-0.57;81.31;102461.55;124143;1102;104168;-76
2022/12/20 09:10:04;;;;;;;32.77;13.27;;;;;;;-0.56;81.59;102455.66;124331;1102;104227;-77
2022/12/20 09:12:38;;;;;;;35.83;15.07;;;;;;;-0.52;80.84;102458.58;124438;1099;104172;-76
2022/12/20 09:15:17;;;;;;;30.95;13.43;;;;;;;-0.49;80.94;102451.19;124673;1099;102301;-76
2022/12/20 09:17:48;;;;;;;30.83;12.07;;;;;;;-0.48;81.48;102440.10;126592;1099;102212;-76
2022/12/20 09:20:22;;;;;;;30.90;12.87;;;;;;;-0.51;80.75;102429.45;126305;1099;102618;-76
2022/12/20 09:22:54;;;;;;;32.77;13.27;;;;;;;-0.56;80.81;102416.98;125971;1102;111136;-76
2022/12/20 09:25:25;;;;;;;33.37;13.30;;;;;;;-0.53;81.21;102421.58;126332;1101;102825;-76
2022/12/20 09:27:57;;;;;;;36.40;14.33;;;;;;;-0.51;81.18;102406.23;124932;1102;104855;-76
2022/12/20 09:30:29;;;;;;;28.93;11.30;;;;;;;-0.48;81.46;102389.45;124371;1102;104250;-77
2022/12/20 09:33:00;;;;;;;29.03;11.30;;;;;;;-0.43;81.44;102390.87;124413;1102;104277;-77
2022/12/20 09:35:33;;;;;;;30.77;12.70;;;;;;;-0.40;81.07;102388.63;124606;1102;104252;-78
2022/12/20 09:38:05;;;;;;;27.53;11.70;;;;;;;-0.33;82.03;102381.56;124753;1099;102427;-78
2022/12/20 09:40:37;;;;;;;29.03;12.50;;;;;;;-0.25;81.64;102386.83;124856;1100;103073;-78
2022/12/20 09:43:12;;;;;;;29.93;11.67;;;;;;;-0.11;81.68;102377.07;124734;1102;104235;-78
2022/12/20 09:45:51;;;;;;;29.50;11.57;;;;;;;0.01;82.01;102362.91;124689;1102;102876;-79
2022/12/20 09:48:25;;;;;;;31.10;11.73;;;;;;;0.12;81.23;102353.74;124734;1102;102666;-79
2022/12/20 09:51:16;;;;;;;27.10;10.83;;;;;;;0.18;81.55;102356.98;124729;1101;104052;-80
2022/12/20 09:54:02;;;;;;;27.93;10.93;;;;;;;0.28;81.23;102343.38;124866;1101;118225;-77
2022/12/20 09:56:41;;;;;;;28.90;11.73;;;;;;;0.35;80.94;102335.54;124776;1102;104294;-78
2022/12/20 09:59:15;;;;;;;26.10;10.37;;;;;;;0.45;81.25;102340.94;124973;1099;103583;-79
2022/12/20 10:01:49;;;;;;;32.50;12.00;;;;;;;0.56;80.97;102325.64;124847;1100;104239;-78
2022/12/20 10:04:23;;;;;;;23.73;9.63;;;;;;;0.65;80.28;102313.69;124556;1102;104284;-77
2022/12/20 10:07:07;;;;;;;23.97;9.83;;;;;;;0.72;80.86;102303.25;124622;1102;104495;-78
2022/12/20 10:10:02;;;;;;;25.60;10.05;;;;;;;0.83;80.85;102294.02;124631;1102;103000;-78
2022/12/20 10:12:44;;;;;;;24.12;9.73;;;;;;;0.98;80.97;102286.91;124669;1100;101948;-77
2022/12/20 10:15:29;;;;;;;26.33;9.87;;;;;;;1.11;80.82;102283.91;124832;1102;102592;-77
2022/12/20 10:18:27;;;;;;;28.73;10.43;;;;;;;1.18;79.61;102274.34;124881;1099;104182;-78
2022/12/20 10:21:07;;;;;;;26.07;10.17;;;;;;;1.24;80.27;102267.20;124854;1102;103666;-78
2022/12/20 10:23:45;;;;;;;27.03;9.60;;;;;;;1.31;79.05;102258.42;124780;1103;102888;-80
2022/12/20 10:26:18;;;;;;;22.60;8.50;;;;;;;1.38;79.06;102260.84;124626;1102;104306;-75
2022/12/20 10:28:54;;;;;;;25.20;8.70;;;;;;;1.40;78.42;102249.00;124797;1102;102230;-77
2022/12/20 10:31:28;;;;;;;25.47;9.80;;;;;;;1.43;78.60;102251.89;124778;1102;104182;-76
2022/12/20 10:33:59;;;;;;;24.37;9.23;;;;;;;1.49;79.79;102251.58;124680;1102;105492;-79
2022/12/20 10:36:33;;;;;;;29.40;9.55;;;;;;;1.48;78.24;102247.19;124774;1102;104101;-77
2022/12/20 10:39:18;;;;;;;23.22;8.88;;;;;;;1.43;77.46;102238.96;124873;1101;103295;-78
2022/12/20 10:41:50;;;;;;;;;;;;;;;1.40;76.19;102232.55;125031;1099;102658;-77
2022/12/20 10:44:26;;;;;;;26.20;10.17;;;;;;;1.36;76.27;102230.44;124736;1102;104651;-77
2022/12/20 10:47:00;;;;;;;26.07;10.07;;;;;;;1.35;77.73;102232.08;124711;1102;104220;-77
2022/12/20 10:49:33;;;;;;;24.83;10.13;;;;;;;1.37;77.85;102221.89;124754;1102;102214;-79
2022/12/20 10:52:16;;;;;;;25.40;10.00;;;;;;;1.36;78.14;102213.23;124779;1101;103507;-78
2022/12/20 10:54:49;;;;;;;25.97;9.47;;;;;;;1.34;76.61;102216.41;124752;1099;104158;-79
2022/12/20 10:57:24;;;;;;;24.97;10.10;;;;;;;1.32;76.98;102207.59;124904;1099;102806;-77
2022/12/20 10:59:59;;;;;;;24.60;9.65;;;;;;;1.32;77.12;102205.00;124928;1099;103053;-78
2022/12/20 11:02:35;;;;;;;23.97;8.93;;;;;;;1.35;76.39;102187.20;124928;1102;102320;-78
2022/12/20 11:05:24;;;;;;;26.93;9.97;;;;;;;1.37;76.01;102183.09;124868;1102;103495;-76
2022/12/20 11:07:58;;;;;;;29.33;9.60;;;;;;;1.43;76.60;102171.70;126114;1101;102711;-76
2022/12/20 11:10:31;;;;;;;28.13;10.53;;;;;;;1.49;76.97;102167.88;126166;1101;101824;-76
2022/12/20 11:13:04;;;;;;;29.25;11.60;;;;;;;1.53;76.39;102154.50;126019;1102;102023;-76
2022/12/20 11:15:46;;;;;;;26.33;10.43;;;;;;;1.56;76.94;102149.63;125928;1102;108738;-76
2022/12/20 11:18:25;;;;;;;22.43;8.53;;;;;;;1.56;73.87;102131.52;126058;1099;102302;-76
2022/12/20 11:21:03;;;;;;;27.15;8.85;;;;;;;1.58;74.08;102133.47;126066;1099;102638;-76
2022/12/20 11:23:43;;;;;;;25.27;8.67;;;;;;;1.61;75.97;102138.95;126060;1099;101939;-76
2022/12/20 11:26:36;;;;;;;25.08;8.70;;;;;;;1.63;76.64;102135.61;126023;1099;103216;-77
2022/12/20 11:29:25;;;;;;;23.30;8.80;;;;;;;1.67;77.15;102133.47;126073;1102;101749;-77
2022/12/20 11:32:09;;;;;;;26.60;10.03;;;;;;;1.75;77.83;102121.28;125982;1102;102719;-76
2022/12/20 11:34:51;;;;;;;20.53;7.93;;;;;;;1.75;76.20;102109.23;125948;1099;101885;-77
2022/12/20 11:37:28;;;;;;;21.07;8.73;;;;;;;1.76;75.85;102104.96;126036;1101;102534;-77